Terminal Aerodrome Forecast
Issued by NWS

Current Version | Previous Version | Text Only | Print | Product List | Glossary Off
Versions: 1 2 3 4 5 6 7 8 9 10 11 12 13 14 15 16 17 18 19 20

000
FTUS41 KPBZ 282300
TAFMGW
TAF
KMGW 282338Z 2900/2924 VRB04KT P6SM BKN250
     FM291400 16006KT P6SM BKN080
     FM291800 19010KT P6SM -SHRA OVC035
     FM292100 20010KT 5SM -SHRA OVC015=

USA.gov is the U.S. government's official web portal to all federal, state and local government web resources and services.